createdAt,value
2019-05-18T00:00:14.186Z,68.95
2019-05-18T00:02:44.827Z,69.07
2019-05-18T00:05:15.513Z,69.96
2019-05-18T00:07:46.118Z,69.67
2019-05-18T00:10:17.541Z,69.58
2019-05-18T00:12:48.122Z,70.14
2019-05-18T00:15:18.795Z,70.30
2019-05-18T00:17:49.487Z,70.43
2019-05-18T00:20:20.049Z,70.53
2019-05-18T00:22:50.818Z,70.11
2019-05-18T00:25:21.422Z,69.69
2019-05-18T00:27:52.015Z,69.89
2019-05-18T00:30:22.694Z,70.07
2019-05-18T00:32:53.248Z,69.64
2019-05-18T00:35:25.211Z,69.72
2019-05-18T00:37:55.801Z,69.74
2019-05-18T00:40:26.386Z,69.58
2019-05-18T00:42:56.965Z,69.05
2019-05-18T00:45:27.560Z,69.55
2019-05-18T00:47:58.218Z,69.64
2019-05-18T00:50:28.889Z,70.16
2019-05-18T00:52:59.466Z,69.92
2019-05-18T00:55:30.046Z,69.73
2019-05-18T00:58:00.731Z,70.55
2019-05-18T01:00:31.511Z,70.81
2019-05-18T01:03:02.315Z,71.42
2019-05-18T01:05:32.906Z,71.03
2019-05-18T01:08:03.487Z,70.31
2019-05-18T01:10:34.268Z,70.35
2019-05-18T01:13:04.969Z,69.83
2019-05-18T01:15:35.660Z,69.33
2019-05-18T01:18:07.117Z,69.06
2019-05-18T01:20:37.757Z,67.93
2019-05-18T01:23:08.617Z,67.27
2019-05-18T01:25:39.180Z,66.85
2019-05-18T01:28:10.021Z,67.48
2019-05-18T01:30:40.599Z,67.58
2019-05-18T01:33:11.185Z,67.90
2019-05-18T01:35:41.801Z,68.70
2019-05-18T01:38:12.413Z,68.00
2019-05-18T01:40:43.075Z,67.50
2019-05-18T01:43:14.463Z,67.45
2019-05-18T01:45:45.315Z,67.30
2019-05-18T01:48:15.889Z,67.24
2019-05-18T01:50:46.615Z,68.46
2019-05-18T01:53:17.194Z,68.47
2019-05-18T01:55:47.773Z,68.29
2019-05-18T01:58:18.367Z,68.57
2019-05-18T02:00:48.947Z,68.85
2019-05-18T02:03:19.542Z,68.97
2019-05-18T02:05:50.125Z,69.35
2019-05-18T02:08:20.715Z,69.84
2019-05-18T02:10:51.332Z,69.79
2019-05-18T02:13:21.941Z,68.26
2019-05-18T02:15:52.519Z,68.77
2019-05-18T02:18:29.159Z,67.10
2019-05-18T02:20:55.381Z,66.47
2019-05-18T02:23:25.973Z,66.55
2019-05-18T02:25:56.632Z,66.94
2019-05-18T02:28:27.215Z,67.04
2019-05-18T02:30:57.817Z,66.80
2019-05-18T02:33:28.503Z,66.07
2019-05-18T02:35:59.097Z,67.12
2019-05-18T02:38:29.667Z,66.87
2019-05-18T02:41:00.378Z,66.52
2019-05-18T02:43:30.957Z,66.05
2019-05-18T02:46:01.538Z,67.68
2019-05-18T02:48:47.555Z,68.29
2019-05-18T02:51:04.381Z,67.94
2019-05-18T02:53:34.973Z,68.60
2019-05-18T02:56:05.623Z,68.83
2019-05-18T02:58:36.203Z,68.72
2019-05-18T03:01:06.909Z,68.74
2019-05-18T03:03:37.568Z,69.43
2019-05-18T03:06:08.408Z,69.10
2019-05-18T03:08:39.180Z,69.02
2019-05-18T03:11:09.856Z,67.28
2019-05-18T03:13:40.579Z,66.81
2019-05-18T03:16:11.265Z,66.62
2019-05-18T03:18:42.181Z,66.43
2019-05-18T03:21:12.849Z,66.17
2019-05-18T03:23:43.511Z,66.26
2019-05-18T03:26:14.093Z,66.25
2019-05-18T03:28:44.979Z,66.02
2019-05-18T03:31:15.564Z,65.85
2019-05-18T03:33:46.117Z,66.02
2019-05-18T03:36:16.782Z,66.16
2019-05-18T03:38:47.577Z,66.23
2019-05-18T03:41:18.156Z,65.52
2019-05-18T03:43:48.742Z,65.35
2019-05-18T03:46:23.330Z,66.71
2019-05-18T03:48:51.775Z,67.70
2019-05-18T03:51:22.363Z,66.33
2019-05-18T03:53:53.041Z,65.72
2019-05-18T03:56:23.636Z,65.60
2019-05-18T03:58:54.248Z,65.40
2019-05-18T04:01:24.934Z,64.74
2019-05-18T04:03:55.640Z,64.95
2019-05-18T04:06:26.423Z,65.58
2019-05-18T04:08:57.241Z,66.23
2019-05-18T04:11:27.920Z,67.01
2019-05-18T04:13:58.618Z,67.05
2019-05-18T04:16:30.446Z,67.24
2019-05-18T04:19:01.082Z,67.62
2019-05-18T04:21:31.850Z,67.89
2019-05-18T04:24:03.765Z,68.05
2019-05-18T04:26:34.584Z,68.04
2019-05-18T04:29:05.930Z,68.77
2019-05-18T04:31:36.690Z,68.64
2019-05-18T04:34:07.396Z,68.12
2019-05-18T04:36:38.459Z,67.77
2019-05-18T04:39:09.100Z,66.52
2019-05-18T04:41:39.875Z,66.36
2019-05-18T04:44:10.617Z,66.07
2019-05-18T04:46:41.472Z,66.79
2019-05-18T04:49:12.153Z,67.20
2019-05-18T04:51:42.945Z,67.45
2019-05-18T04:54:13.686Z,67.95
2019-05-18T04:56:44.256Z,67.99
2019-05-18T04:59:15.304Z,66.84
2019-05-18T05:01:46.269Z,66.54
2019-05-18T05:04:16.962Z,66.82
2019-05-18T05:06:47.706Z,67.08
2019-05-18T05:09:18.425Z,66.35
2019-05-18T05:11:49.224Z,66.62
2019-05-18T05:14:20.086Z,65.91
2019-05-18T05:16:52.460Z,65.60
2019-05-18T05:19:23.292Z,65.00
2019-05-18T05:21:54.080Z,65.56
2019-05-18T05:24:25.965Z,64.72
2019-05-18T05:26:56.540Z,63.21
2019-05-18T05:29:27.121Z,63.64
2019-05-18T05:31:57.800Z,63.25
2019-05-18T05:34:28.473Z,63.53
2019-05-18T05:36:59.083Z,61.89
2019-05-18T05:39:29.671Z,57.32
2019-05-18T05:42:00.249Z,50.28
2019-05-18T05:44:31.918Z,47.02
2019-05-18T05:47:02.550Z,45.47
2019-05-18T05:49:33.122Z,44.58
2019-05-18T05:52:03.702Z,42.58
2019-05-18T05:54:35.304Z,41.92
2019-05-18T05:57:05.896Z,40.68
2019-05-18T05:59:36.515Z,39.16
2019-05-18T06:02:07.093Z,37.19
2019-05-18T06:04:37.682Z,36.20
2019-05-18T06:07:09.338Z,35.59
2019-05-18T06:09:39.900Z,37.40
2019-05-18T06:12:10.489Z,36.17
2019-05-18T06:14:42.068Z,35.42
2019-05-18T06:17:12.683Z,36.41
2019-05-18T06:19:43.256Z,35.64
2019-05-18T06:22:13.836Z,35.08
2019-05-18T06:24:44.429Z,34.07
2019-05-18T06:27:15.122Z,35.50
2019-05-18T06:29:45.894Z,34.03
2019-05-18T06:32:16.477Z,34.75
2019-05-18T06:34:47.081Z,36.44
2019-05-18T06:37:18.395Z,39.84
2019-05-18T06:39:50.309Z,38.90
2019-05-18T06:42:20.963Z,37.35
2019-05-18T06:44:51.670Z,40.07
2019-05-18T06:47:22.278Z,41.73
2019-05-18T06:49:52.908Z,40.53
2019-05-18T06:52:23.792Z,36.52
2019-05-18T06:54:55.916Z,35.72
2019-05-18T06:57:27.284Z,35.51
2019-05-18T06:59:58.567Z,35.66
2019-05-18T07:02:29.147Z,35.68
2019-05-18T07:04:59.715Z,34.27
2019-05-18T07:07:30.410Z,34.53
2019-05-18T07:10:01.034Z,37.06
2019-05-18T07:12:31.790Z,36.52
2019-05-18T07:15:02.449Z,35.28
2019-05-18T07:17:36.366Z,35.18
2019-05-18T07:20:07.300Z,35.21
2019-05-18T07:22:37.910Z,34.78
2019-05-18T07:25:09.652Z,35.17
2019-05-18T07:27:40.318Z,35.87
2019-05-18T07:30:11.603Z,38.21
2019-05-18T07:32:42.525Z,38.08
2019-05-18T07:35:13.655Z,36.12
2019-05-18T07:37:44.378Z,35.01
2019-05-18T07:40:15.034Z,34.01
2019-05-18T07:42:45.638Z,33.82
2019-05-18T07:45:17.255Z,34.13
2019-05-18T07:47:47.938Z,35.65
2019-05-18T07:50:18.669Z,36.80
2019-05-18T07:52:49.259Z,38.75
2019-05-18T07:55:19.874Z,36.90
2019-05-18T07:57:50.465Z,38.75
2019-05-18T08:00:21.185Z,36.28
2019-05-18T08:02:51.770Z,35.37
2019-05-18T08:05:22.364Z,35.46
2019-05-18T08:07:52.951Z,35.57
2019-05-18T08:10:37.877Z,35.05
2019-05-18T08:13:08.615Z,34.66
2019-05-18T08:15:39.531Z,34.75
2019-05-18T08:18:10.316Z,34.02
2019-05-18T08:20:40.880Z,32.94
2019-05-18T08:23:11.544Z,33.65
2019-05-18T08:25:42.143Z,32.13
2019-05-18T08:28:12.749Z,32.57
2019-05-18T08:30:43.358Z,32.01
2019-05-18T08:33:13.940Z,31.53
2019-05-18T08:35:44.543Z,32.97
2019-05-18T08:38:15.252Z,32.36
2019-05-18T08:40:45.856Z,33.35
2019-05-18T08:43:16.486Z,33.71
2019-05-18T08:45:47.257Z,34.30
2019-05-18T08:48:17.994Z,34.60
2019-05-18T08:50:48.615Z,34.80
2019-05-18T08:53:19.295Z,34.01
2019-05-18T08:55:50.100Z,33.44
2019-05-18T08:58:20.768Z,34.30
2019-05-18T09:00:51.416Z,33.34
2019-05-18T09:03:22.076Z,35.27
2019-05-18T09:05:52.668Z,36.65
2019-05-18T09:08:23.349Z,35.69
2019-05-18T09:10:54.049Z,36.02
2019-05-18T09:13:24.884Z,36.02
2019-05-18T09:15:55.593Z,36.29
2019-05-18T09:18:26.278Z,36.82
2019-05-18T09:20:56.870Z,37.82
2019-05-18T09:23:28.698Z,36.55
2019-05-18T09:25:59.378Z,36.60
2019-05-18T09:28:30.379Z,35.92
2019-05-18T09:31:00.943Z,34.91
2019-05-18T09:33:31.708Z,33.38
2019-05-18T09:36:03.180Z,34.00
2019-05-18T09:38:35.224Z,35.65
2019-05-18T09:41:05.803Z,36.26
2019-05-18T09:43:36.406Z,35.40
2019-05-18T09:46:06.986Z,34.96
2019-05-18T09:48:37.755Z,34.60
2019-05-18T09:51:08.348Z,35.78
2019-05-18T09:53:50.654Z,37.03
2019-05-18T09:56:11.323Z,37.83
2019-05-18T09:58:41.906Z,37.37
2019-05-18T10:01:12.540Z,37.21
2019-05-18T10:03:43.205Z,37.58
2019-05-18T10:06:13.840Z,37.71
2019-05-18T10:08:44.546Z,38.30
2019-05-18T10:11:15.173Z,36.38
2019-05-18T10:13:45.872Z,37.35
2019-05-18T10:16:17.437Z,35.88
2019-05-18T10:18:48.036Z,38.21
2019-05-18T10:21:18.622Z,36.56
2019-05-18T10:23:49.452Z,38.23
2019-05-18T10:26:20.193Z,38.15
2019-05-18T10:28:51.065Z,37.74
2019-05-18T10:31:21.649Z,38.88
2019-05-18T10:33:52.214Z,38.24
2019-05-18T10:36:22.811Z,39.05
2019-05-18T10:38:53.538Z,40.56
2019-05-18T10:41:24.137Z,41.34
2019-05-18T10:43:54.869Z,41.21
2019-05-18T10:46:25.448Z,41.07
2019-05-18T10:48:56.050Z,40.15
2019-05-18T10:51:26.693Z,41.12
2019-05-18T10:53:57.317Z,42.00
2019-05-18T10:56:31.118Z,40.30
2019-05-18T10:59:00.262Z,40.60
2019-05-18T11:01:30.926Z,38.84
2019-05-18T11:04:01.727Z,37.59
2019-05-18T11:06:32.464Z,38.06
2019-05-18T11:09:04.256Z,37.67
2019-05-18T11:11:35.325Z,37.97
2019-05-18T11:14:06.450Z,37.34
2019-05-18T11:16:38.301Z,39.05
2019-05-18T11:19:08.968Z,36.06
2019-05-18T11:21:39.544Z,38.71
2019-05-18T11:24:10.142Z,35.99
2019-05-18T11:26:40.728Z,36.71
2019-05-18T11:29:11.322Z,35.29
2019-05-18T11:31:41.880Z,36.58
2019-05-18T11:34:12.483Z,38.25
2019-05-18T11:36:43.059Z,34.75
2019-05-18T11:39:13.718Z,35.28
2019-05-18T11:41:44.314Z,35.60
2019-05-18T11:44:14.885Z,35.10
2019-05-18T11:46:45.467Z,37.04
2019-05-18T11:49:16.173Z,34.63
2019-05-18T11:51:46.856Z,35.45
2019-05-18T11:54:17.544Z,36.51
2019-05-18T11:56:48.130Z,36.54
2019-05-18T11:59:18.697Z,38.37
2019-05-18T12:01:49.314Z,36.81
2019-05-18T12:04:19.915Z,37.69
2019-05-18T12:06:50.492Z,38.50
2019-05-18T12:09:21.071Z,38.59
2019-05-18T12:11:51.672Z,37.77
2019-05-18T12:14:22.344Z,36.01
2019-05-18T12:16:52.963Z,37.42
2019-05-18T12:19:23.591Z,36.71
2019-05-18T12:21:54.224Z,37.11
2019-05-18T12:24:24.780Z,36.28
2019-05-18T12:26:55.719Z,37.13
2019-05-18T12:29:26.270Z,37.47
2019-05-18T12:31:56.961Z,36.32
2019-05-18T12:34:27.538Z,36.05
2019-05-18T12:36:58.101Z,37.48
2019-05-18T12:39:28.882Z,38.96
2019-05-18T12:41:59.453Z,36.24
2019-05-18T12:44:30.040Z,37.17
2019-05-18T12:47:00.608Z,36.21
2019-05-18T12:49:31.506Z,37.34
2019-05-18T12:52:02.500Z,36.96
2019-05-18T12:54:45.535Z,36.56
2019-05-18T12:57:05.651Z,36.67
2019-05-18T12:59:36.530Z,37.93
2019-05-18T13:02:07.502Z,35.88
2019-05-18T13:04:41.594Z,35.26
2019-05-18T13:07:11.171Z,35.25
2019-05-18T13:09:42.290Z,34.25
2019-05-18T13:12:13.607Z,34.22
2019-05-18T13:14:44.417Z,34.24
2019-05-18T13:17:15.209Z,34.80
2019-05-18T13:19:46.966Z,34.33
2019-05-18T13:22:18.179Z,34.79
2019-05-18T13:24:52.028Z,33.95
2019-05-18T13:27:21.096Z,34.40
2019-05-18T13:29:51.771Z,33.90
2019-05-18T13:32:22.399Z,35.07
2019-05-18T13:34:53.202Z,34.63
2019-05-18T13:37:23.997Z,35.71
2019-05-18T13:39:56.502Z,36.27
2019-05-18T13:42:27.772Z,36.72
2019-05-18T13:44:59.275Z,37.50
2019-05-18T13:47:30.463Z,37.09
2019-05-18T13:50:01.059Z,36.03
2019-05-18T13:52:32.352Z,34.84
2019-05-18T13:55:05.160Z,35.79
2019-05-18T13:57:37.026Z,36.57
2019-05-18T14:00:09.904Z,36.98
2019-05-18T14:02:40.502Z,36.38
2019-05-18T14:05:13.055Z,36.07
2019-05-18T14:07:43.684Z,35.62
2019-05-18T14:10:15.407Z,34.87
2019-05-18T14:12:46.188Z,33.50
2019-05-18T14:15:17.412Z,34.35
2019-05-18T14:17:48.347Z,34.56
2019-05-18T14:20:19.109Z,35.53
2019-05-18T14:22:49.692Z,35.45
2019-05-18T14:25:20.507Z,34.97
2019-05-18T14:27:51.081Z,34.98
2019-05-18T14:30:22.320Z,36.10
2019-05-18T14:32:52.994Z,36.47
2019-05-18T14:35:23.577Z,35.13
2019-05-18T14:37:54.410Z,36.12
2019-05-18T14:40:25.090Z,35.92
2019-05-18T14:42:55.662Z,36.33
2019-05-18T14:45:26.263Z,36.65
2019-05-18T14:47:56.835Z,35.75
2019-05-18T14:50:27.409Z,33.50
2019-05-18T14:52:58.002Z,37.04
2019-05-18T14:55:33.799Z,36.10
2019-05-18T14:58:00.933Z,36.99
2019-05-18T15:00:31.509Z,35.83
2019-05-18T15:03:02.080Z,35.36
2019-05-18T15:05:32.656Z,35.40
2019-05-18T15:08:03.215Z,34.84
2019-05-18T15:10:38.197Z,35.97
2019-05-18T15:13:08.855Z,33.65
2019-05-18T15:15:39.508Z,33.30
2019-05-18T15:18:10.072Z,34.85
2019-05-18T15:20:40.814Z,36.77
2019-05-18T15:23:11.386Z,36.70
2019-05-18T15:25:50.071Z,35.68
2019-05-18T15:28:14.356Z,36.43
2019-05-18T15:30:44.954Z,37.01
2019-05-18T15:33:15.712Z,36.72
2019-05-18T15:35:46.307Z,35.42
2019-05-18T15:38:16.993Z,35.30
2019-05-18T15:40:47.577Z,35.15
2019-05-18T15:43:18.317Z,34.67
2019-05-18T15:45:48.923Z,34.45
2019-05-18T15:48:19.647Z,35.74
2019-05-18T15:50:50.983Z,36.32
2019-05-18T15:53:21.568Z,35.06
2019-05-18T15:56:04.879Z,35.21
2019-05-18T15:58:24.415Z,35.43
2019-05-18T16:00:55.161Z,35.45
2019-05-18T16:03:25.742Z,36.17
2019-05-18T16:05:56.902Z,36.11
2019-05-18T16:08:27.480Z,36.75
2019-05-18T16:10:58.062Z,37.22
2019-05-18T16:13:28.794Z,36.03
2019-05-18T16:15:59.451Z,36.79
2019-05-18T16:18:30.290Z,35.94
2019-05-18T16:21:00.843Z,36.88
2019-05-18T16:23:32.538Z,37.52
2019-05-18T16:26:03.134Z,38.14
2019-05-18T16:28:33.726Z,37.82
2019-05-18T16:31:04.479Z,38.72
2019-05-18T16:33:35.409Z,37.41
2019-05-18T16:36:06.144Z,37.72
2019-05-18T16:38:37.706Z,38.68
2019-05-18T16:41:08.386Z,38.75
2019-05-18T16:43:38.985Z,39.04
2019-05-18T16:46:09.644Z,37.56
2019-05-18T16:48:40.356Z,38.43
2019-05-18T16:51:11.441Z,39.27
2019-05-18T16:53:42.003Z,39.22
2019-05-18T16:56:12.731Z,38.74
2019-05-18T16:58:43.289Z,38.24
2019-05-18T17:01:13.870Z,37.80
2019-05-18T17:03:44.447Z,39.19
2019-05-18T17:06:16.490Z,39.61
2019-05-18T17:08:47.376Z,37.88
2019-05-18T17:11:17.941Z,37.60
2019-05-18T17:13:48.517Z,38.60
2019-05-18T17:16:19.125Z,39.39
2019-05-18T17:18:49.704Z,38.88
2019-05-18T17:21:20.255Z,39.07
2019-05-18T17:23:53.604Z,39.12
2019-05-18T17:26:23.787Z,39.40
2019-05-18T17:28:54.550Z,40.10
2019-05-18T17:31:25.188Z,39.70
2019-05-18T17:33:55.889Z,39.34
2019-05-18T17:36:26.500Z,40.07
2019-05-18T17:38:57.141Z,40.34
2019-05-18T17:41:27.734Z,40.26
2019-05-18T17:43:58.905Z,40.83
2019-05-18T17:46:29.648Z,40.88
2019-05-18T17:49:00.338Z,40.47
2019-05-18T17:51:31.055Z,41.41
2019-05-18T17:54:02.375Z,41.71
2019-05-18T17:56:33.302Z,41.27
2019-05-18T17:59:04.457Z,42.12
2019-05-18T18:01:35.384Z,41.94
2019-05-18T18:04:06.282Z,42.78
2019-05-18T18:06:37.189Z,43.04
2019-05-18T18:09:08.933Z,41.87
2019-05-18T18:11:39.880Z,42.94
2019-05-18T18:14:10.850Z,42.56
2019-05-18T18:16:41.764Z,42.64
2019-05-18T18:19:15.818Z,43.88
2019-05-18T18:21:46.858Z,43.75
2019-05-18T18:24:17.817Z,43.66
2019-05-18T18:26:48.631Z,43.72
2019-05-18T18:29:20.351Z,43.67
2019-05-18T18:31:51.001Z,43.37
2019-05-18T18:34:21.764Z,43.31
2019-05-18T18:36:52.468Z,43.07
2019-05-18T18:39:23.109Z,42.96
2019-05-18T18:41:53.703Z,44.27
2019-05-18T18:44:25.892Z,46.60
2019-05-18T18:46:56.517Z,48.14
2019-05-18T18:49:27.205Z,48.60
2019-05-18T18:51:57.820Z,48.60
2019-05-18T18:54:28.469Z,49.46
2019-05-18T18:56:59.047Z,46.80
2019-05-18T18:59:29.626Z,49.11
2019-05-18T19:02:00.757Z,49.38
2019-05-18T19:04:31.831Z,50.94
2019-05-18T19:07:02.633Z,51.65
2019-05-18T19:09:33.199Z,51.55
2019-05-18T19:12:03.944Z,51.55
2019-05-18T19:14:34.783Z,50.76
2019-05-18T19:17:07.250Z,52.19
2019-05-18T19:19:40.120Z,52.88
2019-05-18T19:22:11.466Z,52.47
2019-05-18T19:24:42.032Z,52.86
2019-05-18T19:27:12.630Z,52.79
2019-05-18T19:29:43.383Z,54.35
2019-05-18T19:32:14.010Z,54.80
2019-05-18T19:34:44.714Z,55.15
2019-05-18T19:37:15.584Z,55.26
2019-05-18T19:39:47.677Z,55.53
2019-05-18T19:42:18.477Z,55.72
2019-05-18T19:44:49.877Z,55.90
2019-05-18T19:47:21.178Z,56.15
2019-05-18T19:49:52.528Z,55.41
2019-05-18T19:52:23.385Z,55.53
2019-05-18T19:54:54.017Z,56.12
2019-05-18T19:57:24.736Z,56.29
2019-05-18T19:59:56.862Z,56.01
2019-05-18T20:02:27.466Z,56.13
2019-05-18T20:05:07.486Z,56.08
2019-05-18T20:07:31.767Z,56.90
2019-05-18T20:10:05.608Z,56.91
2019-05-18T20:12:36.280Z,56.73
2019-05-18T20:15:09.481Z,56.91
2019-05-18T20:17:40.991Z,56.93
2019-05-18T20:20:14.631Z,56.70
2019-05-18T20:22:45.306Z,57.17
2019-05-18T20:25:16.145Z,57.27
2019-05-18T20:27:46.813Z,57.89
2019-05-18T20:30:18.218Z,57.53
2019-05-18T20:32:49.047Z,57.47
2019-05-18T20:35:19.765Z,57.52
2019-05-18T20:37:50.376Z,57.72
2019-05-18T20:40:21.057Z,58.40
2019-05-18T20:42:53.357Z,58.79
2019-05-18T20:45:24.177Z,59.32
2019-05-18T20:47:54.759Z,59.08
2019-05-18T20:50:25.368Z,59.35
2019-05-18T20:52:55.965Z,59.49
2019-05-18T20:55:26.551Z,59.96
2019-05-18T20:57:57.211Z,60.00
2019-05-18T21:00:28.691Z,60.38
2019-05-18T21:02:59.448Z,59.47
2019-05-18T21:05:30.753Z,59.67
2019-05-18T21:08:01.869Z,59.38
2019-05-18T21:10:36.274Z,59.08
2019-05-18T21:13:06.944Z,58.84
2019-05-18T21:15:37.536Z,59.04
2019-05-18T21:18:08.241Z,59.53
2019-05-18T21:20:38.867Z,59.18
2019-05-18T21:23:09.487Z,59.52
2019-05-18T21:25:40.093Z,59.87
2019-05-18T21:28:10.703Z,59.56
2019-05-18T21:30:41.299Z,59.33
2019-05-18T21:33:11.890Z,59.31
2019-05-18T21:35:42.465Z,59.20
2019-05-18T21:38:13.040Z,59.77
2019-05-18T21:40:43.628Z,60.32
2019-05-18T21:43:14.260Z,60.34
2019-05-18T21:45:44.839Z,60.84
2019-05-18T21:48:15.452Z,60.90
2019-05-18T21:50:46.016Z,60.76
2019-05-18T21:53:18.028Z,60.84
2019-05-18T21:55:48.627Z,60.63
2019-05-18T21:58:19.226Z,60.19
2019-05-18T22:00:50.608Z,59.63
2019-05-18T22:03:21.205Z,59.96
2019-05-18T22:05:53.215Z,59.75
2019-05-18T22:08:23.817Z,59.93
2019-05-18T22:10:54.428Z,60.20
2019-05-18T22:13:25.071Z,59.79
2019-05-18T22:15:55.602Z,60.90
2019-05-18T22:18:26.184Z,61.67
2019-05-18T22:20:56.778Z,61.69
2019-05-18T22:23:27.361Z,61.91
2019-05-18T22:25:58.045Z,61.48
2019-05-18T22:28:28.652Z,61.22
2019-05-18T22:30:59.247Z,61.17
2019-05-18T22:33:29.862Z,61.03
2019-05-18T22:36:00.433Z,60.83
2019-05-18T22:38:31.024Z,60.50
2019-05-18T22:41:01.621Z,61.06
2019-05-18T22:43:32.197Z,60.87
2019-05-18T22:46:02.925Z,61.03
2019-05-18T22:48:41.277Z,60.89
2019-05-18T22:51:06.657Z,60.60
2019-05-18T22:53:37.321Z,61.33
2019-05-18T22:56:07.931Z,61.69
2019-05-18T22:58:38.514Z,61.31
2019-05-18T23:01:09.332Z,61.73
2019-05-18T23:03:40.115Z,61.41
2019-05-18T23:06:10.875Z,61.27
2019-05-18T23:08:41.691Z,61.20
2019-05-18T23:11:12.524Z,60.65
2019-05-18T23:13:43.286Z,60.89
2019-05-18T23:16:13.963Z,61.22
2019-05-18T23:18:56.349Z,61.25
2019-05-18T23:21:20.168Z,61.77
2019-05-18T23:23:50.870Z,61.48
2019-05-18T23:26:21.667Z,61.42
2019-05-18T23:28:52.408Z,61.44
2019-05-18T23:31:22.989Z,61.58
2019-05-18T23:33:53.791Z,61.14
2019-05-18T23:36:24.487Z,61.24
2019-05-18T23:38:55.184Z,61.46
2019-05-18T23:41:25.758Z,61.36
2019-05-18T23:43:56.470Z,61.33
2019-05-18T23:46:27.056Z,61.56
2019-05-18T23:49:10.018Z,61.56
2019-05-18T23:51:30.088Z,61.34
2019-05-18T23:54:00.656Z,61.51
2019-05-18T23:56:31.327Z,61.83
2019-05-18T23:59:01.971Z,62.57
